Latest Weather Observations for Lord Howe Island Windy Point

IDN60801

Issued at 9:34 pm EDT Monday 26 January 2015 (issued every 30 minutes, with the page automatically refreshed every 10 minutes)

About weather observations | Map of weather stations | Latest weather observations for NSW | Other Formats
Station Details ID: 200715 Name: LORD HOWE ISLAND WINDY POINT Lat: -31.54 Lon: 159.07 Height: 4.0 m
Data from the previous 72 hours. | See also: Recent months for locations in New South Wales
Date/Time
EDT
Temp
°C
App
Temp
°C
Dew
Point
Rel
Hum
%
Delta-T
°C
Wind Press
QNH
hPa
Press
MSL
hPa
Rain
since 9 am
mm
Dir
 
Spd
km/h
Gust
km/h
Spd
kts
Gust
kts
26/09:30pm - - - - - S 32 69 17 37 - - -
26/09:00pm - - - - - SSW 37 74 20 40 - - -
26/08:57pm - - - - - S 37 74 20 40 - - -
26/08:47pm - - - - - S 33 61 18 33 - - -
26/08:30pm - - - - - S 24 69 13 37 - - -
26/08:07pm - - - - - S 35 89 19 48 - - -
26/08:05pm - - - - - S 35 89 19 48 - - -
26/08:03pm - - - - - S 41 89 22 48 - - -
26/08:00pm - - - - - S 39 78 21 42 - - -
26/07:30pm - - - - - S 39 78 21 42 - - -
26/07:00pm - - - - - S 39 82 21 44 - - -
26/06:32pm - - - - - SSE 43 83 23 45 - - -
26/06:30pm - - - - - SSE 41 83 22 45 - - -
26/06:00pm - - - - - SSE 43 80 23 43 - - -
26/05:30pm - - - - - SSE 41 74 22 40 - - -
26/05:00pm - - - - - SSE 39 80 21 43 - - -
26/04:30pm - - - - - SSE 41 76 22 41 - - -
26/04:28pm - - - - - SSE 43 76 23 41 - - -
26/04:24pm - - - - - SSE 41 76 22 41 - - -
26/04:22pm - - - - - S 43 76 23 41 - - -
26/04:01pm - - - - - SSE 35 59 19 32 - - -
26/04:00pm - - - - - SSE 35 59 19 32 - - -
26/03:33pm - - - - - S 32 50 17 27 - - -
26/03:30pm - - - - - SSE 33 50 18 27 - - -
26/03:00pm - - - - - S 30 50 16 27 - - -
26/02:40pm - - - - - S 32 50 17 27 - - -
26/02:30pm - - - - - S 30 43 16 23 - - -
26/02:00pm - - - - - SSW 35 46 19 25 - - -
26/01:30pm - - - - - SSW 37 50 20 27 - - -
26/01:00pm - - - - - SSW 37 50 20 27 - - -
26/12:55pm - - - - - SSW 32 50 17 27 - - -
26/12:30pm - - - - - SSW 30 37 16 20 - - -
26/12:00pm - - - - - SSW 26 32 14 17 - - -
26/11:30am - - - - - SSW 30 35 16 19 - - -
26/11:00am - - - - - SSW 28 35 15 19 - - -
26/10:30am - - - - - SSW 30 33 16 18 - - -
26/10:00am - - - - - SSW 33 41 18 22 - - -
26/09:30am - - - - - SW 30 33 16 18 - - -
26/09:00am - - - - - SW 28 35 15 19 - - -
26/08:30am - - - - - SW 24 30 13 16 - - -
26/08:00am - - - - - SW 26 30 14 16 - - -
26/07:30am - - - - - SW 24 28 13 15 - - -
26/07:00am - - - - - SW 24 28 13 15 - - -
26/06:30am - - - - - WSW 24 30 13 16 - - -
26/06:00am - - - - - SW 24 30 13 16 - - -
26/05:30am - - - - - SW 20 26 11 14 - - -
26/05:00am - - - - - SW 20 24 11 13 - - -
26/04:30am - - - - - SSW 24 28 13 15 - - -
26/04:00am - - - - - SW 20 24 11 13 - - -
26/03:30am - - - - - SW 24 33 13 18 - - -
26/03:00am - - - - - SW 28 37 15 20 - - -
26/02:30am - - - - - SW 30 35 16 19 - - -
26/02:00am - - - - - WSW 24 28 13 15 - - -
26/01:30am - - - - - WSW 22 26 12 14 - - -
26/01:00am - - - - - WSW 22 26 12 14 - - -
26/12:30am - - - - - WSW 22 26 12 14 - - -
26/12:00am - - - - - WSW 19 20 10 11 - - -
 
Date/Time
EDT
Temp
°C
App
Temp
°C
Dew
Point
Rel
Hum
%
Delta-T
°C
Wind Press
QNH
hPa
Press
MSL
hPa
Rain
since 9 am
mm
Dir
 
Spd
km/h
Gust
km/h
Spd
kts
Gust
kts
25/11:30pm - - - - - WSW 19 20 10 11 - - -
25/11:00pm - - - - - SW 19 20 10 11 - - -
25/10:30pm - - - - - SW 19 20 10 11 - - -
25/10:00pm - - - - - SW 19 20 10 11 - - -
25/09:30pm - - - - - SW 17 20 9 11 - - -
25/09:00pm - - - - - SW 22 24 12 13 - - -
25/08:30pm - - - - - SW 17 19 9 10 - - -
25/08:00pm - - - - - SW 19 20 10 11 - - -
25/07:30pm - - - - - SW 17 19 9 10 - - -
25/07:00pm - - - - - SW 19 20 10 11 - - -
25/06:30pm - - - - - WSW 19 20 10 11 - - -
25/06:00pm - - - - - SW 22 24 12 13 - - -
25/05:30pm - - - - - WSW 19 20 10 11 - - -
25/05:00pm - - - - - SW 15 17 8 9 - - -
25/04:30pm - - - - - WSW 22 26 12 14 - - -
25/04:00pm - - - - - W 26 33 14 18 - - -
25/03:30pm - - - - - W 13 17 7 9 - - -
25/03:00pm - - - - - W 17 19 9 10 - - -
25/02:30pm - - - - - W 19 24 10 13 - - -
25/02:00pm - - - - - W 15 20 8 11 - - -
25/01:30pm - - - - - WNW 13 17 7 9 - - -
25/01:00pm - - - - - WNW 13 17 7 9 - - -
25/12:30pm - - - - - NW 15 20 8 11 - - -
25/12:00pm - - - - - NNE 17 20 9 11 - - -
25/11:30am - - - - - N 19 24 10 13 - - -
25/11:00am - - - - - N 17 22 9 12 - - -
25/10:30am - - - - - NNE 15 28 8 15 - - -
25/10:00am - - - - - N 13 20 7 11 - - -
25/09:30am - - - - - NNE 17 24 9 13 - - -
25/09:00am - - - - - NNE 15 22 8 12 - - -
25/08:30am - - - - - NNE 15 20 8 11 - - -
25/08:00am - - - - - NNE 13 19 7 10 - - -
25/07:30am - - - - - NE 11 17 6 9 - - -
25/07:00am - - - - - NNW 4 11 2 6 - - -
25/06:30am - - - - - NE 7 15 4 8 - - -
25/06:00am - - - - - NNE 11 17 6 9 - - -
25/05:30am - - - - - NE 9 13 5 7 - - -
25/05:00am - - - - - NE 11 15 6 8 - - -
25/04:30am - - - - - NE 13 19 7 10 - - -
25/04:00am - - - - - NE 9 17 5 9 - - -
25/03:30am - - - - - NNE 9 20 5 11 - - -
25/03:00am - - - - - NE 9 19 5 10 - - -
25/02:30am - - - - - NNE 9 19 5 10 - - -
25/02:00am - - - - - S 6 15 3 8 - - -
25/01:30am - - - - - NNE 13 28 7 15 - - -
25/01:00am - - - - - NE 11 24 6 13 - - -
25/12:30am - - - - - ENE 9 17 5 9 - - -
25/12:00am - - - - - NE 6 11 3 6 - - -
 
Date/Time
EDT
Temp
°C
App
Temp
°C
Dew
Point
Rel
Hum
%
Delta-T
°C
Wind Press
QNH
hPa
Press
MSL
hPa
Rain
since 9 am
mm
Dir
 
Spd
km/h
Gust
km/h
Spd
kts
Gust
kts
24/11:30pm - - - - - NE 9 19 5 10 - - -
24/11:00pm - - - - - NE 9 17 5 9 - - -
24/10:30pm - - - - - NE 6 9 3 5 - - -
24/10:00pm - - - - - NE 2 7 1 4 - - -
24/09:30pm - - - - - NE 6 13 3 7 - - -
24/09:00pm - - - - - NNE 6 13 3 7 - - -
24/08:30pm - - - - - NE 7 11 4 6 - - -
24/08:00pm - - - - - NNE 7 13 4 7 - - -
24/07:30pm - - - - - NE 7 17 4 9 - - -
24/07:00pm - - - - - NNE 7 11 4 6 - - -
24/06:30pm - - - - - ENE 9 15 5 8 - - -
24/06:00pm - - - - - NE 11 19 6 10 - - -
24/05:30pm - - - - - E 13 22 7 12 - - -
24/05:00pm - - - - - ENE 15 22 8 12 - - -
24/04:30pm - - - - - E 15 20 8 11 - - -
24/04:00pm - - - - - ENE 15 22 8 12 - - -
24/03:30pm - - - - - E 20 28 11 15 - - -
24/03:00pm - - - - - ENE 20 26 11 14 - - -
24/02:30pm - - - - - E 20 26 11 14 - - -
24/02:00pm - - - - - ENE 20 28 11 15 - - -
24/01:30pm - - - - - E 20 26 11 14 - - -
24/01:00pm - - - - - E 22 30 12 16 - - -
24/12:30pm - - - - - E 26 30 14 16 - - -
24/12:00pm - - - - - E 28 37 15 20 - - -
24/11:30am - - - - - E 28 35 15 19 - - -
24/11:00am - - - - - E 30 35 16 19 - - -
24/10:30am - - - - - E 33 39 18 21 - - -
24/10:00am - - - - - E 35 43 19 23 - - -
24/09:30am - - - - - E 32 41 17 22 - - -
24/09:00am - - - - - E 35 46 19 25 - - -
24/08:30am - - - - - E 33 41 18 22 - - -
24/08:00am - - - - - E 33 39 18 21 - - -
24/07:30am - - - - - E 33 44 18 24 - - -
24/07:00am - - - - - E 32 41 17 22 - - -
24/06:30am - - - - - E 35 44 19 24 - - -
24/06:00am - - - - - ESE 35 44 19 24 - - -
24/05:30am - - - - - ESE 33 43 18 23 - - -
24/05:00am - - - - - ESE 33 43 18 23 - - -
24/04:30am - - - - - ESE 33 41 18 22 - - -
24/04:00am - - - - - ESE 32 41 17 22 - - -
24/03:30am - - - - - ESE 32 39 17 21 - - -
24/03:00am - - - - - ESE 32 39 17 21 - - -
24/02:30am - - - - - ESE 26 33 14 18 - - -
24/02:00am - - - - - ESE 26 33 14 18 - - -
24/01:30am - - - - - ESE 28 35 15 19 - - -
24/01:00am - - - - - ESE 30 35 16 19 - - -
24/12:30am - - - - - ESE 28 33 15 18 - - -
24/12:00am - - - - - ESE 32 39 17 21 - - -
 
Date/Time
EDT
Temp
°C
App
Temp
°C
Dew
Point
Rel
Hum
%
Delta-T
°C
Wind Press
QNH
hPa
Press
MSL
hPa
Rain
since 9 am
mm
Dir
 
Spd
km/h
Gust
km/h
Spd
kts
Gust
kts
23/11:30pm - - - - - ESE 26 39 14 21 - - -
23/11:00pm - - - - - ESE 20 33 11 18 - - -
23/10:30pm - - - - - ESE 22 32 12 17 - - -
23/10:00pm - - - - - ESE 22 32 12 17 - - -

Other Formats:

Comma delimited format used in spreadsheet applications
http://www.bom.gov.au/fwo/IDN60801/IDN60801.95995.axf

JavaScript Object Notation format (JSON) in row-major order
http://www.bom.gov.au/fwo/IDN60801/IDN60801.95995.json